sensor_id;sensor_type;location;lat;lon;timestamp;temperature;humidity
48264;DHT22;34086;51.076;13.722;2022-12-18T00:00:36;-6.30;99.90
48264;DHT22;34086;51.076;13.722;2022-12-18T00:01:40;-6.30;99.90
48264;DHT22;34086;51.076;13.722;2022-12-18T00:02:40;-6.40;99.90
48264;DHT22;34086;51.076;13.722;2022-12-18T00:03:41;-6.40;99.90
48264;DHT22;34086;51.076;13.722;2022-12-18T00:04:42;-6.40;99.90
48264;DHT22;34086;51.076;13.722;2022-12-18T00:05:51;-6.40;99.90
48264;DHT22;34086;51.076;13.722;2022-12-18T00:06:55;-6.40;99.90
48264;DHT22;34086;51.076;13.722;2022-12-18T00:07:56;-6.40;99.90
48264;DHT22;34086;51.076;13.722;2022-12-18T00:08:58;-6.40;99.90
48264;DHT22;34086;51.076;13.722;2022-12-18T00:09:59;-6.40;99.90
48264;DHT22;34086;51.076;13.722;2022-12-18T00:11:07;-6.40;99.90
48264;DHT22;34086;51.076;13.722;2022-12-18T00:12:09;-6.40;99.90
48264;DHT22;34086;51.076;13.722;2022-12-18T00:13:10;-6.40;99.90
48264;DHT22;34086;51.076;13.722;2022-12-18T00:14:12;-6.40;99.90
48264;DHT22;34086;51.076;13.722;2022-12-18T00:15:13;-6.40;99.90
48264;DHT22;34086;51.076;13.722;2022-12-18T00:16:18;-6.40;99.90
48264;DHT22;34086;51.076;13.722;2022-12-18T00:17:20;-6.40;99.90
48264;DHT22;34086;51.076;13.722;2022-12-18T00:18:21;-6.40;99.90
48264;DHT22;34086;51.076;13.722;2022-12-18T00:19:22;-6.40;99.90
48264;DHT22;34086;51.076;13.722;2022-12-18T00:20:24;-6.40;99.90
48264;DHT22;34086;51.076;13.722;2022-12-18T00:21:27;-6.40;99.90
48264;DHT22;34086;51.076;13.722;2022-12-18T00:22:29;-6.40;99.90
48264;DHT22;34086;51.076;13.722;2022-12-18T00:23:30;-6.40;99.90
48264;DHT22;34086;51.076;13.722;2022-12-18T00:24:42;-6.40;99.90
48264;DHT22;34086;51.076;13.722;2022-12-18T00:25:42;-6.50;99.90
48264;DHT22;34086;51.076;13.722;2022-12-18T00:26:48;-6.50;99.90
48264;DHT22;34086;51.076;13.722;2022-12-18T00:27:48;-6.50;99.90
48264;DHT22;34086;51.076;13.722;2022-12-18T00:28:49;-6.50;99.90
48264;DHT22;34086;51.076;13.722;2022-12-18T00:29:51;-6.50;99.90
48264;DHT22;34086;51.076;13.722;2022-12-18T00:31:09;-6.50;99.90
48264;DHT22;34086;51.076;13.722;2022-12-18T00:32:11;-6.50;99.90
48264;DHT22;34086;51.076;13.722;2022-12-18T00:33:11;-6.50;99.90
48264;DHT22;34086;51.076;13.722;2022-12-18T00:34:13;-6.50;99.90
48264;DHT22;34086;51.076;13.722;2022-12-18T00:35:14;-6.50;99.90
48264;DHT22;34086;51.076;13.722;2022-12-18T00:36:20;-6.60;99.90
48264;DHT22;34086;51.076;13.722;2022-12-18T00:37:21;-6.60;99.90
48264;DHT22;34086;51.076;13.722;2022-12-18T00:38:25;-6.60;99.90
48264;DHT22;34086;51.076;13.722;2022-12-18T00:39:25;-6.60;99.90
48264;DHT22;34086;51.076;13.722;2022-12-18T00:40:26;-6.60;99.90
48264;DHT22;34086;51.076;13.722;2022-12-18T00:41:28;-6.70;99.90
48264;DHT22;34086;51.076;13.722;2022-12-18T00:42:47;-6.60;99.90
48264;DHT22;34086;51.076;13.722;2022-12-18T00:43:58;-6.60;99.90
48264;DHT22;34086;51.076;13.722;2022-12-18T00:44:59;-6.60;99.90
48264;DHT22;34086;51.076;13.722;2022-12-18T00:46:00;-6.70;99.90
48264;DHT22;34086;51.076;13.722;2022-12-18T00:47:01;-6.70;99.90
48264;DHT22;34086;51.076;13.722;2022-12-18T00:48:02;-6.70;99.90
48264;DHT22;34086;51.076;13.722;2022-12-18T00:49:03;-6.70;99.90
48264;DHT22;34086;51.076;13.722;2022-12-18T00:50:04;-6.70;99.90
48264;DHT22;34086;51.076;13.722;2022-12-18T00:51:05;-6.80;99.90
48264;DHT22;34086;51.076;13.722;2022-12-18T00:52:07;-6.70;99.90
48264;DHT22;34086;51.076;13.722;2022-12-18T00:53:08;-6.70;99.90
48264;DHT22;34086;51.076;13.722;2022-12-18T00:54:11;-6.70;99.90
48264;DHT22;34086;51.076;13.722;2022-12-18T00:55:13;-6.80;99.90
48264;DHT22;34086;51.076;13.722;2022-12-18T00:56:14;-6.80;99.90
48264;DHT22;34086;51.076;13.722;2022-12-18T00:57:15;-6.80;99.90
48264;DHT22;34086;51.076;13.722;2022-12-18T00:58:17;-6.80;99.90
48264;DHT22;34086;51.076;13.722;2022-12-18T00:59:19;-6.90;99.90
48264;DHT22;34086;51.076;13.722;2022-12-18T01:00:24;-6.90;99.90
48264;DHT22;34086;51.076;13.722;2022-12-18T01:01:25;-6.90;99.90
48264;DHT22;34086;51.076;13.722;2022-12-18T01:02:26;-6.90;99.90
48264;DHT22;34086;51.076;13.722;2022-12-18T01:03:27;-6.90;99.90
48264;DHT22;34086;51.076;13.722;2022-12-18T01:04:27;-6.90;99.90
48264;DHT22;34086;51.076;13.722;2022-12-18T01:05:28;-6.90;99.90
48264;DHT22;34086;51.076;13.722;2022-12-18T01:06:29;-7.00;99.90
48264;DHT22;34086;51.076;13.722;2022-12-18T01:07:30;-7.00;99.90
48264;DHT22;34086;51.076;13.722;2022-12-18T01:08:31;-7.00;99.90
48264;DHT22;34086;51.076;13.722;2022-12-18T01:09:33;-7.00;99.90
48264;DHT22;34086;51.076;13.722;2022-12-18T01:10:35;-7.00;99.90
48264;DHT22;34086;51.076;13.722;2022-12-18T01:11:36;-7.00;99.90
48264;DHT22;34086;51.076;13.722;2022-12-18T01:12:38;-7.00;99.90
48264;DHT22;34086;51.076;13.722;2022-12-18T01:13:39;-7.00;99.90
48264;DHT22;34086;51.076;13.722;2022-12-18T01:14:40;-7.00;99.90
48264;DHT22;34086;51.076;13.722;2022-12-18T01:15:49;-7.00;99.90
48264;DHT22;34086;51.076;13.722;2022-12-18T01:16:50;-7.00;99.90
48264;DHT22;34086;51.076;13.722;2022-12-18T01:17:54;-7.00;99.90
48264;DHT22;34086;51.076;13.722;2022-12-18T01:18:55;-7.00;99.90
48264;DHT22;34086;51.076;13.722;2022-12-18T01:19:56;-7.00;99.90
48264;DHT22;34086;51.076;13.722;2022-12-18T01:20:57;-7.00;99.90
48264;DHT22;34086;51.076;13.722;2022-12-18T01:21:58;-7.00;99.90
48264;DHT22;34086;51.076;13.722;2022-12-18T01:22:59;-7.00;99.90
48264;DHT22;34086;51.076;13.722;2022-12-18T01:24:01;-7.00;99.90
48264;DHT22;34086;51.076;13.722;2022-12-18T01:25:03;-7.00;99.90
48264;DHT22;34086;51.076;13.722;2022-12-18T01:26:10;-7.00;99.90
48264;DHT22;34086;51.076;13.722;2022-12-18T01:27:11;-7.00;99.90
48264;DHT22;34086;51.076;13.722;2022-12-18T01:28:13;-7.00;99.90
48264;DHT22;34086;51.076;13.722;2022-12-18T01:29:15;-7.00;99.90
48264;DHT22;34086;51.076;13.722;2022-12-18T01:30:17;-7.10;99.90
48264;DHT22;34086;51.076;13.722;2022-12-18T01:31:24;-7.10;99.90
48264;DHT22;34086;51.076;13.722;2022-12-18T01:32:25;-7.10;99.90
48264;DHT22;34086;51.076;13.722;2022-12-18T01:33:26;-7.10;99.90
48264;DHT22;34086;51.076;13.722;2022-12-18T01:34:27;-7.10;99.90
48264;DHT22;34086;51.076;13.722;2022-12-18T01:35:27;-7.10;99.90
48264;DHT22;34086;51.076;13.722;2022-12-18T01:36:31;-7.00;99.90
48264;DHT22;34086;51.076;13.722;2022-12-18T01:37:32;-7.00;99.90
48264;DHT22;34086;51.076;13.722;2022-12-18T01:38:34;-7.00;99.90
48264;DHT22;34086;51.076;13.722;2022-12-18T01:39:34;-7.00;99.90
48264;DHT22;34086;51.076;13.722;2022-12-18T01:40:35;-7.00;99.90
48264;DHT22;34086;51.076;13.722;2022-12-18T01:41:38;-7.10;99.90
48264;DHT22;34086;51.076;13.722;2022-12-18T01:42:58;-7.10;99.90
48264;DHT22;34086;51.076;13.722;2022-12-18T01:43:59;-7.10;99.90
48264;DHT22;34086;51.076;13.722;2022-12-18T01:46:19;-7.20;99.90
48264;DHT22;34086;51.076;13.722;2022-12-18T01:48:42;-7.10;99.90
48264;DHT22;34086;51.076;13.722;2022-12-18T01:49:43;-7.10;99.90
48264;DHT22;34086;51.076;13.722;2022-12-18T01:50:44;-7.20;99.90
48264;DHT22;34086;51.076;13.722;2022-12-18T01:51:45;-7.10;99.90
48264;DHT22;34086;51.076;13.722;2022-12-18T01:52:52;-7.10;99.90
48264;DHT22;34086;51.076;13.722;2022-12-18T01:53:54;-7.20;99.90
48264;DHT22;34086;51.076;13.722;2022-12-18T01:54:57;-7.20;99.90
48264;DHT22;34086;51.076;13.722;2022-12-18T01:56:00;-7.20;99.90
48264;DHT22;34086;51.076;13.722;2022-12-18T01:57:01;-7.20;99.90
48264;DHT22;34086;51.076;13.722;2022-12-18T01:58:04;-7.20;99.90
48264;DHT22;34086;51.076;13.722;2022-12-18T01:59:06;-7.20;99.90
48264;DHT22;34086;51.076;13.722;2022-12-18T02:00:15;-7.20;99.90
48264;DHT22;34086;51.076;13.722;2022-12-18T02:01:17;-7.20;99.90
48264;DHT22;34086;51.076;13.722;2022-12-18T02:02:18;-7.20;99.90
48264;DHT22;34086;51.076;13.722;2022-12-18T02:03:19;-7.20;99.90
48264;DHT22;34086;51.076;13.722;2022-12-18T02:04:26;-7.20;99.90
48264;DHT22;34086;51.076;13.722;2022-12-18T02:06:45;-7.20;99.90
48264;DHT22;34086;51.076;13.722;2022-12-18T02:08:04;-7.20;99.90
48264;DHT22;34086;51.076;13.722;2022-12-18T02:09:12;-7.20;99.90
48264;DHT22;34086;51.076;13.722;2022-12-18T02:18:05;-7.30;99.90
48264;DHT22;34086;51.076;13.722;2022-12-18T02:20:45;-7.30;99.90
48264;DHT22;34086;51.076;13.722;2022-12-18T02:21:58;-7.40;99.90
48264;DHT22;34086;51.076;13.722;2022-12-18T02:24:41;-7.40;99.90
48264;DHT22;34086;51.076;13.722;2022-12-18T02:27:07;-7.40;99.90
48264;DHT22;34086;51.076;13.722;2022-12-18T02:28:13;-7.40;99.90
48264;DHT22;34086;51.076;13.722;2022-12-18T02:29:20;-7.40;99.90
48264;DHT22;34086;51.076;13.722;2022-12-18T02:30:22;-7.40;99.90
48264;DHT22;34086;51.076;13.722;2022-12-18T02:31:27;-7.40;99.90
48264;DHT22;34086;51.076;13.722;2022-12-18T02:32:33;-7.40;99.90
48264;DHT22;34086;51.076;13.722;2022-12-18T02:33:36;-7.40;99.90
48264;DHT22;34086;51.076;13.722;2022-12-18T02:34:39;-7.40;99.90
48264;DHT22;34086;51.076;13.722;2022-12-18T02:35:42;-7.40;99.90
48264;DHT22;34086;51.076;13.722;2022-12-18T02:36:46;-7.40;99.90
48264;DHT22;34086;51.076;13.722;2022-12-18T02:37:48;-7.40;99.90
48264;DHT22;34086;51.076;13.722;2022-12-18T02:38:50;-7.40;99.90
48264;DHT22;34086;51.076;13.722;2022-12-18T02:39:55;-7.40;99.90
48264;DHT22;34086;51.076;13.722;2022-12-18T02:40:57;-7.30;99.90
48264;DHT22;34086;51.076;13.722;2022-12-18T02:41:59;-7.30;99.90
48264;DHT22;34086;51.076;13.722;2022-12-18T02:43:13;-7.30;99.90
48264;DHT22;34086;51.076;13.722;2022-12-18T02:44:15;-7.20;99.90
48264;DHT22;34086;51.076;13.722;2022-12-18T02:45:16;-7.20;99.90
48264;DHT22;34086;51.076;13.722;2022-12-18T02:47:35;-7.00;99.90
48264;DHT22;34086;51.076;13.722;2022-12-18T02:48:37;-7.00;99.90
48264;DHT22;34086;51.076;13.722;2022-12-18T02:49:57;-6.90;99.90
48264;DHT22;34086;51.076;13.722;2022-12-18T02:51:11;-6.90;99.90
48264;DHT22;34086;51.076;13.722;2022-12-18T02:54:08;-6.70;99.90
48264;DHT22;34086;51.076;13.722;2022-12-18T02:55:24;-6.60;99.90
48264;DHT22;34086;51.076;13.722;2022-12-18T02:56:43;-6.60;99.90
48264;DHT22;34086;51.076;13.722;2022-12-18T02:57:59;-6.60;99.90
48264;DHT22;34086;51.076;13.722;2022-12-18T02:59:17;-6.60;99.90
48264;DHT22;34086;51.076;13.722;2022-12-18T03:00:38;-6.50;99.90
48264;DHT22;34086;51.076;13.722;2022-12-18T03:01:51;-6.50;99.90
48264;DHT22;34086;51.076;13.722;2022-12-18T03:04:16;-6.50;99.90
48264;DHT22;34086;51.076;13.722;2022-12-18T03:05:22;-6.50;99.90
48264;DHT22;34086;51.076;13.722;2022-12-18T03:06:50;-6.50;99.90
48264;DHT22;34086;51.076;13.722;2022-12-18T03:07:57;-6.50;99.90
48264;DHT22;34086;51.076;13.722;2022-12-18T03:09:09;-6.50;99.90
48264;DHT22;34086;51.076;13.722;2022-12-18T03:10:16;-6.40;99.90
48264;DHT22;34086;51.076;13.722;2022-12-18T03:11:19;-6.40;99.90
48264;DHT22;34086;51.076;13.722;2022-12-18T03:12:47;-6.40;99.90
48264;DHT22;34086;51.076;13.722;2022-12-18T03:13:56;-6.40;99.90
48264;DHT22;34086;51.076;13.722;2022-12-18T03:15:24;-6.40;99.90
48264;DHT22;34086;51.076;13.722;2022-12-18T03:16:34;-6.40;99.90
48264;DHT22;34086;51.076;13.722;2022-12-18T03:17:40;-6.40;99.90
48264;DHT22;34086;51.076;13.722;2022-12-18T03:18:48;-6.40;99.90
48264;DHT22;34086;51.076;13.722;2022-12-18T03:19:51;-6.40;99.90
48264;DHT22;34086;51.076;13.722;2022-12-18T03:20:53;-6.40;99.90
48264;DHT22;34086;51.076;13.722;2022-12-18T03:21:57;-6.40;99.90
48264;DHT22;34086;51.076;13.722;2022-12-18T03:23:04;-6.30;99.90
48264;DHT22;34086;51.076;13.722;2022-12-18T03:24:09;-6.40;99.90
48264;DHT22;34086;51.076;13.722;2022-12-18T03:25:13;-6.30;99.90
48264;DHT22;34086;51.076;13.722;2022-12-18T03:26:19;-6.30;99.90
48264;DHT22;34086;51.076;13.722;2022-12-18T03:27:24;-6.30;99.90
48264;DHT22;34086;51.076;13.722;2022-12-18T03:28:30;-6.20;99.90
48264;DHT22;34086;51.076;13.722;2022-12-18T03:29:42;-6.20;99.90
48264;DHT22;34086;51.076;13.722;2022-12-18T03:30:49;-6.20;99.90
48264;DHT22;34086;51.076;13.722;2022-12-18T03:31:55;-6.20;99.90
48264;DHT22;34086;51.076;13.722;2022-12-18T03:33:07;-6.20;99.90
48264;DHT22;34086;51.076;13.722;2022-12-18T03:34:21;-6.20;99.90
48264;DHT22;34086;51.076;13.722;2022-12-18T03:35:28;-6.20;99.90
48264;DHT22;34086;51.076;13.722;2022-12-18T03:36:30;-6.10;99.90
48264;DHT22;34086;51.076;13.722;2022-12-18T03:37:32;-6.20;99.90
48264;DHT22;34086;51.076;13.722;2022-12-18T03:38:33;-6.10;99.90
48264;DHT22;34086;51.076;13.722;2022-12-18T03:39:35;-6.10;99.90
48264;DHT22;34086;51.076;13.722;2022-12-18T03:43:35;-6.10;99.90
48264;DHT22;34086;51.076;13.722;2022-12-18T03:45:10;-6.10;99.90
48264;DHT22;34086;51.076;13.722;2022-12-18T03:46:28;-6.10;99.90
48264;DHT22;34086;51.076;13.722;2022-12-18T03:47:38;-6.10;99.90
48264;DHT22;34086;51.076;13.722;2022-12-18T03:48:48;-6.10;99.90
48264;DHT22;34086;51.076;13.722;2022-12-18T03:50:10;-6.10;99.90
48264;DHT22;34086;51.076;13.722;2022-12-18T03:51:28;-6.20;99.90
48264;DHT22;34086;51.076;13.722;2022-12-18T03:52:39;-6.20;99.90
48264;DHT22;34086;51.076;13.722;2022-12-18T03:53:52;-6.20;99.90
48264;DHT22;34086;51.076;13.722;2022-12-18T03:54:58;-6.30;99.90
48264;DHT22;34086;51.076;13.722;2022-12-18T03:56:01;-6.30;99.90
48264;DHT22;34086;51.076;13.722;2022-12-18T03:57:11;-6.30;99.90
48264;DHT22;34086;51.076;13.722;2022-12-18T03:58:18;-6.30;99.90
48264;DHT22;34086;51.076;13.722;2022-12-18T03:59:30;-6.40;99.90
48264;DHT22;34086;51.076;13.722;2022-12-18T04:00:33;-6.50;99.90
48264;DHT22;34086;51.076;13.722;2022-12-18T04:01:50;-6.50;99.90
48264;DHT22;34086;51.076;13.722;2022-12-18T04:02:55;-6.60;99.90
48264;DHT22;34086;51.076;13.722;2022-12-18T04:04:06;-6.60;99.90
48264;DHT22;34086;51.076;13.722;2022-12-18T04:05:10;-6.70;99.90
48264;DHT22;34086;51.076;13.722;2022-12-18T04:06:15;-6.70;99.90
48264;DHT22;34086;51.076;13.722;2022-12-18T04:07:18;-6.70;99.90
48264;DHT22;34086;51.076;13.722;2022-12-18T04:08:20;-6.70;99.90
48264;DHT22;34086;51.076;13.722;2022-12-18T04:09:31;-6.80;99.90
48264;DHT22;34086;51.076;13.722;2022-12-18T04:10:33;-6.80;99.90
48264;DHT22;34086;51.076;13.722;2022-12-18T04:11:37;-6.80;99.90
48264;DHT22;34086;51.076;13.722;2022-12-18T04:12:39;-6.80;99.90
48264;DHT22;34086;51.076;13.722;2022-12-18T04:13:43;-6.90;99.90
48264;DHT22;34086;51.076;13.722;2022-12-18T04:14:51;-6.90;99.90
48264;DHT22;34086;51.076;13.722;2022-12-18T04:15:52;-7.00;99.90
48264;DHT22;34086;51.076;13.722;2022-12-18T04:16:54;-7.00;99.90
48264;DHT22;34086;51.076;13.722;2022-12-18T04:18:00;-7.10;99.90
48264;DHT22;34086;51.076;13.722;2022-12-18T04:19:09;-7.10;99.90
48264;DHT22;34086;51.076;13.722;2022-12-18T04:20:14;-7.20;99.90
48264;DHT22;34086;51.076;13.722;2022-12-18T04:21:17;-7.20;99.90
48264;DHT22;34086;51.076;13.722;2022-12-18T04:22:21;-7.30;99.90
48264;DHT22;34086;51.076;13.722;2022-12-18T04:23:27;-7.30;99.90
48264;DHT22;34086;51.076;13.722;2022-12-18T04:24:31;-7.30;99.90
48264;DHT22;34086;51.076;13.722;2022-12-18T04:26:01;-7.40;99.90
48264;DHT22;34086;51.076;13.722;2022-12-18T04:27:21;-7.40;99.90
48264;DHT22;34086;51.076;13.722;2022-12-18T04:28:24;-7.40;99.90
48264;DHT22;34086;51.076;13.722;2022-12-18T04:29:25;-7.50;99.90
48264;DHT22;34086;51.076;13.722;2022-12-18T04:30:26;-7.50;99.90
48264;DHT22;34086;51.076;13.722;2022-12-18T04:31:27;-7.50;99.90
48264;DHT22;34086;51.076;13.722;2022-12-18T04:32:27;-7.50;99.90
48264;DHT22;34086;51.076;13.722;2022-12-18T04:33:28;-7.50;99.90
48264;DHT22;34086;51.076;13.722;2022-12-18T04:34:29;-7.60;99.90
48264;DHT22;34086;51.076;13.722;2022-12-18T04:35:30;-7.60;99.90
48264;DHT22;34086;51.076;13.722;2022-12-18T04:36:31;-7.60;99.90
48264;DHT22;34086;51.076;13.722;2022-12-18T04:37:31;-7.60;99.90
48264;DHT22;34086;51.076;13.722;2022-12-18T04:38:32;-7.60;99.90
48264;DHT22;34086;51.076;13.722;2022-12-18T04:39:39;-7.60;99.90
48264;DHT22;34086;51.076;13.722;2022-12-18T04:40:46;-7.60;99.90
48264;DHT22;34086;51.076;13.722;2022-12-18T04:41:55;-7.60;99.90
48264;DHT22;34086;51.076;13.722;2022-12-18T04:42:56;-7.70;99.90
48264;DHT22;34086;51.076;13.722;2022-12-18T04:43:58;-7.70;99.90
48264;DHT22;34086;51.076;13.722;2022-12-18T04:44:58;-7.70;99.90
48264;DHT22;34086;51.076;13.722;2022-12-18T04:46:06;-7.70;99.90
48264;DHT22;34086;51.076;13.722;2022-12-18T04:47:07;-7.70;99.90
48264;DHT22;34086;51.076;13.722;2022-12-18T04:48:08;-7.70;99.90
48264;DHT22;34086;51.076;13.722;2022-12-18T04:49:09;-7.70;99.90
48264;DHT22;34086;51.076;13.722;2022-12-18T04:50:11;-7.80;99.90
48264;DHT22;34086;51.076;13.722;2022-12-18T04:51:12;-7.80;99.90
48264;DHT22;34086;51.076;13.722;2022-12-18T04:52:13;-7.80;99.90
48264;DHT22;34086;51.076;13.722;2022-12-18T04:53:14;-7.80;99.90
48264;DHT22;34086;51.076;13.722;2022-12-18T04:54:14;-7.80;99.90
48264;DHT22;34086;51.076;13.722;2022-12-18T04:55:16;-7.80;99.90
48264;DHT22;34086;51.076;13.722;2022-12-18T04:56:16;-7.80;99.90
48264;DHT22;34086;51.076;13.722;2022-12-18T04:57:18;-7.80;99.90
48264;DHT22;34086;51.076;13.722;2022-12-18T04:58:19;-7.90;99.90
48264;DHT22;34086;51.076;13.722;2022-12-18T04:59:19;-7.90;99.90
48264;DHT22;34086;51.076;13.722;2022-12-18T05:00:20;-7.90;99.90
48264;DHT22;34086;51.076;13.722;2022-12-18T05:01:21;-7.90;99.90
48264;DHT22;34086;51.076;13.722;2022-12-18T05:02:22;-7.90;99.90
48264;DHT22;34086;51.076;13.722;2022-12-18T05:03:23;-7.90;99.90
48264;DHT22;34086;51.076;13.722;2022-12-18T05:04:23;-7.90;99.90
48264;DHT22;34086;51.076;13.722;2022-12-18T05:05:24;-7.90;99.90
48264;DHT22;34086;51.076;13.722;2022-12-18T05:06:25;-7.90;99.90
48264;DHT22;34086;51.076;13.722;2022-12-18T05:07:26;-7.90;99.90
48264;DHT22;34086;51.076;13.722;2022-12-18T05:08:26;-7.90;99.90
48264;DHT22;34086;51.076;13.722;2022-12-18T05:09:27;-7.90;99.90
48264;DHT22;34086;51.076;13.722;2022-12-18T05:10:28;-7.90;99.90
48264;DHT22;34086;51.076;13.722;2022-12-18T05:11:29;-7.90;99.90
48264;DHT22;34086;51.076;13.722;2022-12-18T05:12:31;-7.90;99.90
48264;DHT22;34086;51.076;13.722;2022-12-18T05:13:32;-8.00;99.90
48264;DHT22;34086;51.076;13.722;2022-12-18T05:14:33;-8.00;99.90
48264;DHT22;34086;51.076;13.722;2022-12-18T05:15:34;-8.00;99.90
48264;DHT22;34086;51.076;13.722;2022-12-18T05:16:34;-7.90;99.90
48264;DHT22;34086;51.076;13.722;2022-12-18T05:17:35;-7.90;99.90
48264;DHT22;34086;51.076;13.722;2022-12-18T05:18:36;-7.90;99.90
48264;DHT22;34086;51.076;13.722;2022-12-18T05:19:37;-7.90;99.90
48264;DHT22;34086;51.076;13.722;2022-12-18T05:20:38;-7.90;99.90
48264;DHT22;34086;51.076;13.722;2022-12-18T05:21:39;-7.70;99.90
48264;DHT22;34086;51.076;13.722;2022-12-18T05:22:39;-7.70;99.90
48264;DHT22;34086;51.076;13.722;2022-12-18T05:23:40;-7.70;99.90
48264;DHT22;34086;51.076;13.722;2022-12-18T05:24:41;-7.70;99.90
48264;DHT22;34086;51.076;13.722;2022-12-18T05:25:42;-7.80;99.90
48264;DHT22;34086;51.076;13.722;2022-12-18T05:26:43;-7.80;99.90
48264;DHT22;34086;51.076;13.722;2022-12-18T05:27:44;-7.80;99.90
48264;DHT22;34086;51.076;13.722;2022-12-18T05:28:45;-7.90;99.90
48264;DHT22;34086;51.076;13.722;2022-12-18T05:29:46;-7.90;99.90
48264;DHT22;34086;51.076;13.722;2022-12-18T05:30:51;-8.00;99.90
48264;DHT22;34086;51.076;13.722;2022-12-18T05:31:52;-8.00;99.90
48264;DHT22;34086;51.076;13.722;2022-12-18T05:32:53;-8.00;99.90
48264;DHT22;34086;51.076;13.722;2022-12-18T05:33:54;-8.00;99.90
48264;DHT22;34086;51.076;13.722;2022-12-18T05:34:55;-8.10;99.90
48264;DHT22;34086;51.076;13.722;2022-12-18T05:35:59;-8.10;99.90
48264;DHT22;34086;51.076;13.722;2022-12-18T05:37:03;-8.10;99.90
48264;DHT22;34086;51.076;13.722;2022-12-18T05:38:03;-8.10;99.90
48264;DHT22;34086;51.076;13.722;2022-12-18T05:39:04;-8.10;99.90
48264;DHT22;34086;51.076;13.722;2022-12-18T05:40:05;-8.10;99.90
48264;DHT22;34086;51.076;13.722;2022-12-18T05:41:07;-8.10;99.90
48264;DHT22;34086;51.076;13.722;2022-12-18T05:42:08;-8.10;99.90
48264;DHT22;34086;51.076;13.722;2022-12-18T05:43:10;-8.10;99.90
48264;DHT22;34086;51.076;13.722;2022-12-18T05:44:10;-8.10;99.90
48264;DHT22;34086;51.076;13.722;2022-12-18T05:45:11;-8.10;99.90
48264;DHT22;34086;51.076;13.722;2022-12-18T05:46:16;-8.20;99.90
48264;DHT22;34086;51.076;13.722;2022-12-18T05:47:18;-8.20;99.90
48264;DHT22;34086;51.076;13.722;2022-12-18T05:48:19;-8.20;99.90
48264;DHT22;34086;51.076;13.722;2022-12-18T05:49:20;-8.20;99.90
48264;DHT22;34086;51.076;13.722;2022-12-18T05:50:20;-8.30;99.90
48264;DHT22;34086;51.076;13.722;2022-12-18T05:51:22;-8.30;99.90
48264;DHT22;34086;51.076;13.722;2022-12-18T05:52:23;-8.20;99.90
48264;DHT22;34086;51.076;13.722;2022-12-18T05:53:23;-8.30;99.90
48264;DHT22;34086;51.076;13.722;2022-12-18T05:54:27;-8.30;99.90
48264;DHT22;34086;51.076;13.722;2022-12-18T05:55:28;-8.30;99.90
48264;DHT22;34086;51.076;13.722;2022-12-18T05:56:29;-8.30;99.90
48264;DHT22;34086;51.076;13.722;2022-12-18T05:57:29;-8.30;99.90
48264;DHT22;34086;51.076;13.722;2022-12-18T05:58:31;-8.30;99.90
48264;DHT22;34086;51.076;13.722;2022-12-18T05:59:32;-8.30;99.90
48264;DHT22;34086;51.076;13.722;2022-12-18T06:00:34;-8.30;99.90
48264;DHT22;34086;51.076;13.722;2022-12-18T06:01:35;-8.40;99.90
48264;DHT22;34086;51.076;13.722;2022-12-18T06:02:36;-8.40;99.90
48264;DHT22;34086;51.076;13.722;2022-12-18T06:03:38;-8.40;99.90
48264;DHT22;34086;51.076;13.722;2022-12-18T06:04:39;-8.40;99.90
48264;DHT22;34086;51.076;13.722;2022-12-18T06:05:43;-8.40;99.90
48264;DHT22;34086;51.076;13.722;2022-12-18T06:06:43;-8.40;99.90
48264;DHT22;34086;51.076;13.722;2022-12-18T06:07:44;-8.40;99.90
48264;DHT22;34086;51.076;13.722;2022-12-18T06:08:45;-8.50;99.90
48264;DHT22;34086;51.076;13.722;2022-12-18T06:09:46;-8.40;99.90
48264;DHT22;34086;51.076;13.722;2022-12-18T06:10:51;-8.50;99.90
48264;DHT22;34086;51.076;13.722;2022-12-18T06:11:53;-8.50;99.90
48264;DHT22;34086;51.076;13.722;2022-12-18T06:12:53;-8.40;99.90
48264;DHT22;34086;51.076;13.722;2022-12-18T06:13:56;-8.40;99.90
48264;DHT22;34086;51.076;13.722;2022-12-18T06:14:56;-8.40;99.90
48264;DHT22;34086;51.076;13.722;2022-12-18T06:15:57;-8.50;99.90
48264;DHT22;34086;51.076;13.722;2022-12-18T06:16:58;-8.50;99.90
48264;DHT22;34086;51.076;13.722;2022-12-18T06:18:00;-8.50;99.90
48264;DHT22;34086;51.076;13.722;2022-12-18T06:19:02;-8.50;99.90
48264;DHT22;34086;51.076;13.722;2022-12-18T06:20:04;-8.50;99.90
48264;DHT22;34086;51.076;13.722;2022-12-18T06:21:05;-8.50;99.90
48264;DHT22;34086;51.076;13.722;2022-12-18T06:22:05;-8.50;99.90
48264;DHT22;34086;51.076;13.722;2022-12-18T06:23:06;-8.50;99.90
48264;DHT22;34086;51.076;13.722;2022-12-18T06:24:07;-8.50;99.90
48264;DHT22;34086;51.076;13.722;2022-12-18T06:25:08;-8.50;99.90
48264;DHT22;34086;51.076;13.722;2022-12-18T06:26:10;-8.50;99.90
48264;DHT22;34086;51.076;13.722;2022-12-18T06:27:12;-8.50;99.90
48264;DHT22;34086;51.076;13.722;2022-12-18T06:28:12;-8.50;99.90
48264;DHT22;34086;51.076;13.722;2022-12-18T06:29:13;-8.50;99.90
48264;DHT22;34086;51.076;13.722;2022-12-18T06:30:14;-8.50;99.90
48264;DHT22;34086;51.076;13.722;2022-12-18T06:31:15;-8.50;99.90
48264;DHT22;34086;51.076;13.722;2022-12-18T06:32:16;-8.50;99.90
48264;DHT22;34086;51.076;13.722;2022-12-18T06:33:17;-8.50;99.90
48264;DHT22;34086;51.076;13.722;2022-12-18T06:34:18;-8.50;99.90
48264;DHT22;34086;51.076;13.722;2022-12-18T06:35:18;-8.50;99.90
48264;DHT22;34086;51.076;13.722;2022-12-18T06:36:19;-8.50;99.90
48264;DHT22;34086;51.076;13.722;2022-12-18T06:37:21;-8.50;99.90
48264;DHT22;34086;51.076;13.722;2022-12-18T06:38:25;-8.50;99.90
48264;DHT22;34086;51.076;13.722;2022-12-18T06:39:28;-8.50;99.90
48264;DHT22;34086;51.076;13.722;2022-12-18T06:40:29;-8.50;99.90
48264;DHT22;34086;51.076;13.722;2022-12-18T06:41:30;-8.50;99.90
48264;DHT22;34086;51.076;13.722;2022-12-18T06:42:31;-8.50;99.90
48264;DHT22;34086;51.076;13.722;2022-12-18T06:43:32;-8.50;99.90
48264;DHT22;34086;51.076;13.722;2022-12-18T06:44:33;-8.50;99.90
48264;DHT22;34086;51.076;13.722;2022-12-18T06:45:33;-8.50;99.90
48264;DHT22;34086;51.076;13.722;2022-12-18T06:46:34;-8.50;99.90
48264;DHT22;34086;51.076;13.722;2022-12-18T06:47:35;-8.50;99.90
48264;DHT22;34086;51.076;13.722;2022-12-18T06:48:36;-8.60;99.90
48264;DHT22;34086;51.076;13.722;2022-12-18T06:49:36;-8.60;99.90
48264;DHT22;34086;51.076;13.722;2022-12-18T06:50:41;-8.60;99.90
48264;DHT22;34086;51.076;13.722;2022-12-18T06:51:42;-8.60;99.90
48264;DHT22;34086;51.076;13.722;2022-12-18T06:52:43;-8.60;99.90
48264;DHT22;34086;51.076;13.722;2022-12-18T06:53:44;-8.50;99.90
48264;DHT22;34086;51.076;13.722;2022-12-18T06:54:45;-8.60;99.90
48264;DHT22;34086;51.076;13.722;2022-12-18T06:55:45;-8.50;99.90
48264;DHT22;34086;51.076;13.722;2022-12-18T06:56:46;-8.50;99.90
48264;DHT22;34086;51.076;13.722;2022-12-18T06:57:48;-8.50;99.90
48264;DHT22;34086;51.076;13.722;2022-12-18T06:58:49;-8.50;99.90
48264;DHT22;34086;51.076;13.722;2022-12-18T06:59:50;-8.50;99.90